Time;durP1;ratioP1;P1;durP2;ratioP2;P2;SDS_P1;SDS_P2;PMS_P1;PMS_P2;Temp;Humidity;BMP_temperature;BMP_pressure;BME280_temperature;BME280_humidity;BME280_pressure;Samples;Min_cycle;Max_cycle;Signal;HPM_P1;HPM_P2
2022/03/31 00:00:15;;;;;;;8.45;6.82;;;8.60;99.90;;;;;;4977757;28;20214;-64
2022/03/31 00:02:42;;;;;;;9.38;6.78;;;8.50;99.90;;;;;;4978067;28;20193;-64
2022/03/31 00:05:08;;;;;;;9.10;5.55;;;8.50;99.90;;;;;;4977539;28;20194;-64
2022/03/31 00:07:33;;;;;;;10.35;7.68;;;8.50;99.90;;;;;;4978135;28;20170;-62
2022/03/31 00:09:59;;;;;;;9.20;6.93;;;8.40;99.90;;;;;;4977468;28;20657;-64
2022/03/31 00:12:25;;;;;;;7.47;6.60;;;8.40;99.90;;;;;;4977449;28;20650;-63
2022/03/31 00:14:51;;;;;;;7.77;6.20;;;8.40;99.90;;;;;;4977278;28;20529;-63
2022/03/31 00:17:17;;;;;;;7.10;6.40;;;8.40;99.90;;;;;;4977743;28;20164;-64
2022/03/31 00:19:43;;;;;;;9.20;7.07;;;8.30;99.90;;;;;;4976227;28;21009;-64
2022/03/31 00:22:08;;;;;;;9.30;5.90;;;8.30;99.90;;;;;;4976200;28;20419;-63
2022/03/31 00:24:34;;;;;;;7.20;6.33;;;8.30;99.90;;;;;;4977179;28;20427;-63
2022/03/31 00:27:00;;;;;;;7.00;6.40;;;8.30;99.90;;;;;;4977677;28;20171;-62
2022/03/31 00:29:27;;;;;;;8.73;5.00;;;8.30;99.90;;;;;;4977721;28;20581;-63
2022/03/31 00:31:54;;;;;;;15.77;8.27;;;8.30;99.90;;;;;;4977238;28;20427;-64
2022/03/31 00:34:20;;;;;;;7.63;5.80;;;8.30;99.90;;;;;;4976959;28;20168;-64
2022/03/31 00:36:46;;;;;;;6.47;5.87;;;8.30;99.90;;;;;;4977523;28;20168;-63
2022/03/31 00:39:31;;;;;;;8.10;5.60;;;8.30;99.90;;;;;;4977079;28;20176;-62
2022/03/31 00:41:59;;;;;;;7.10;6.50;;;8.20;99.90;;;;;;4977511;28;20168;-64
2022/03/31 00:44:25;;;;;;;5.68;5.13;;;8.20;99.90;;;;;;4976885;28;20176;-63
2022/03/31 00:46:52;;;;;;;6.97;5.25;;;8.20;99.90;;;;;;4977183;28;20175;-62
2022/03/31 00:49:20;;;;;;;8.48;6.10;;;8.20;99.90;;;;;;4977030;28;20176;-64
2022/03/31 00:51:46;;;;;;;11.00;6.90;;;8.20;99.90;;;;;;4976837;28;20192;-64
2022/03/31 00:54:14;;;;;;;4.90;3.92;;;8.10;99.90;;;;;;4975380;28;20190;-66
2022/03/31 00:56:41;;;;;;;6.45;5.55;;;8.10;99.90;;;;;;4977229;28;20183;-64
2022/03/31 00:59:08;;;;;;;8.27;6.65;;;8.10;99.90;;;;;;4977029;28;20184;-63
2022/03/31 01:01:36;;;;;;;6.20;4.82;;;8.00;99.90;;;;;;4976876;28;20608;-64
2022/03/31 01:04:03;;;;;;;8.57;6.95;;;8.00;99.90;;;;;;4976549;28;20178;-64
2022/03/31 01:06:28;;;;;;;7.82;6.13;;;8.00;99.90;;;;;;4976968;28;20191;-64
2022/03/31 01:08:54;;;;;;;6.83;4.60;;;8.00;99.90;;;;;;4977052;28;20183;-63
2022/03/31 01:11:21;;;;;;;7.40;5.20;;;8.00;99.90;;;;;;4977189;28;20538;-64
2022/03/31 01:13:47;;;;;;;6.55;4.78;;;7.90;99.90;;;;;;4976154;28;20182;-63
2022/03/31 01:16:13;;;;;;;6.17;4.70;;;7.90;99.90;;;;;;4976753;28;20248;-63
2022/03/31 01:18:38;;;;;;;6.53;5.90;;;7.90;99.90;;;;;;4976465;28;20411;-63
2022/03/31 01:21:04;;;;;;;7.53;5.00;;;7.90;99.90;;;;;;4976513;28;20798;-63
2022/03/31 01:23:30;;;;;;;7.67;5.57;;;7.90;99.90;;;;;;4976458;28;20624;-63
2022/03/31 01:25:56;;;;;;;5.80;5.28;;;7.90;99.90;;;;;;4976536;28;20192;-62
2022/03/31 01:28:22;;;;;;;5.47;4.93;;;7.90;99.90;;;;;;4976573;28;20191;-64
2022/03/31 01:30:47;;;;;;;5.97;4.63;;;7.90;99.90;;;;;;4976213;28;20841;-64
2022/03/31 01:33:14;;;;;;;6.97;5.67;;;7.90;99.90;;;;;;4976299;28;20256;-64
2022/03/31 01:35:40;;;;;;;7.40;6.80;;;7.90;99.90;;;;;;4976277;28;20212;-63
2022/03/31 01:38:06;;;;;;;6.63;5.50;;;7.80;99.90;;;;;;4976485;28;20199;-64
2022/03/31 01:40:34;;;;;;;8.43;5.63;;;7.80;99.90;;;;;;4975888;28;20241;-63
2022/03/31 01:42:59;;;;;;;9.68;5.13;;;7.80;99.90;;;;;;4976180;28;20411;-64
2022/03/31 01:45:25;;;;;;;8.27;5.90;;;7.70;99.90;;;;;;4976027;28;20196;-64
2022/03/31 01:47:51;;;;;;;7.17;5.47;;;7.70;99.90;;;;;;4976145;28;20168;-65
2022/03/31 01:50:16;;;;;;;9.00;5.03;;;7.70;99.90;;;;;;4974583;28;20448;-64
2022/03/31 01:52:42;;;;;;;8.77;6.60;;;7.70;99.90;;;;;;4974991;28;20658;-64
2022/03/31 01:55:09;;;;;;;4.88;4.30;;;7.70;99.90;;;;;;4975710;28;20203;-64
2022/03/31 01:57:35;;;;;;;8.55;4.68;;;7.70;99.90;;;;;;4975985;28;20181;-63
2022/03/31 02:00:02;;;;;;;8.63;4.78;;;7.70;99.90;;;;;;4975435;28;20197;-64
2022/03/31 02:02:30;;;;;;;6.53;5.85;;;7.70;99.90;;;;;;4975939;28;20176;-63
2022/03/31 02:04:56;;;;;;;6.70;5.70;;;7.70;99.90;;;;;;4974960;28;20199;-64
2022/03/31 02:07:22;;;;;;;10.30;6.28;;;7.60;99.90;;;;;;4975924;28;20189;-64
2022/03/31 02:09:47;;;;;;;6.40;5.60;;;7.60;99.90;;;;;;4975726;28;20178;-64
2022/03/31 02:12:13;;;;;;;6.13;4.93;;;7.50;99.90;;;;;;4975686;28;20167;-64
2022/03/31 02:14:40;;;;;;;8.60;6.80;;;7.50;99.90;;;;;;4975319;28;20429;-64
2022/03/31 02:17:11;;;;;;;6.30;5.50;;;7.50;99.90;;;;;;4975753;28;20168;-63
2022/03/31 02:19:37;;;;;;;8.40;5.45;;;7.40;99.90;;;;;;4975337;28;20192;-64
2022/03/31 02:22:04;;;;;;;7.45;6.75;;;7.40;99.90;;;;;;4975434;28;20600;-63
2022/03/31 02:24:30;;;;;;;8.60;5.82;;;7.40;99.90;;;;;;4975122;28;20172;-63
2022/03/31 02:26:57;;;;;;;8.27;6.60;;;7.30;99.90;;;;;;4975439;28;20194;-64
2022/03/31 02:29:22;;;;;;;7.90;6.20;;;7.30;99.90;;;;;;4975331;28;20188;-64
2022/03/31 02:31:48;;;;;;;9.90;6.67;;;7.20;99.90;;;;;;4975329;28;20169;-64
2022/03/31 02:34:15;;;;;;;9.40;6.50;;;7.20;99.90;;;;;;4974873;28;20415;-64
2022/03/31 02:36:42;;;;;;;13.43;9.05;;;7.20;99.90;;;;;;4975277;28;20425;-63
2022/03/31 02:39:09;;;;;;;8.35;6.47;;;7.10;99.90;;;;;;4975032;28;20691;-65
2022/03/31 02:41:35;;;;;;;9.30;6.82;;;7.10;99.90;;;;;;4975335;28;20214;-63
2022/03/31 02:44:02;;;;;;;7.72;5.82;;;7.00;99.90;;;;;;4975102;28;20167;-63
2022/03/31 02:46:28;;;;;;;9.70;6.20;;;6.90;99.90;;;;;;4975043;28;20197;-63
2022/03/31 02:48:55;;;;;;;12.30;7.50;;;6.90;99.90;;;;;;4975555;28;20808;-64
2022/03/31 02:51:22;;;;;;;8.32;6.07;;;6.90;99.90;;;;;;4975146;28;20424;-64
2022/03/31 02:56:32;;;;;;;8.35;6.70;;;6.90;99.90;;;;;;4975386;28;20224;-64
2022/03/31 02:58:58;;;;;;;9.40;8.03;;;6.70;99.90;;;;;;4975074;28;20178;-62
2022/03/31 03:01:24;;;;;;;9.63;6.47;;;6.70;99.90;;;;;;4977859;28;20278;-62
2022/03/31 03:03:50;;;;;;;9.20;6.95;;;6.70;99.90;;;;;;4977760;28;20210;-64
2022/03/31 03:06:16;;;;;;;7.80;6.32;;;6.70;99.90;;;;;;4976810;28;20194;-62
2022/03/31 03:08:42;;;;;;;9.70;6.10;;;6.70;99.90;;;;;;4975772;28;20539;-64
2022/03/31 03:11:08;;;;;;;10.40;8.10;;;6.70;99.90;;;;;;4975065;28;20172;-63
2022/03/31 03:13:35;;;;;;;11.03;7.00;;;6.70;99.90;;;;;;4975145;28;20495;-64
2022/03/31 03:16:08;;;;;;;14.27;7.35;;;6.70;99.90;;;;;;4973887;28;20453;-64
2022/03/31 03:18:34;;;;;;;7.85;5.70;;;6.60;99.90;;;;;;4974632;28;20202;-64
2022/03/31 03:21:00;;;;;;;8.07;5.40;;;6.60;99.90;;;;;;4973224;28;20209;-64
2022/03/31 03:23:26;;;;;;;7.65;6.95;;;6.60;99.90;;;;;;4973215;28;20214;-63
2022/03/31 03:25:52;;;;;;;9.77;5.50;;;6.50;99.90;;;;;;4974493;28;20230;-64
2022/03/31 03:28:17;;;;;;;8.80;6.93;;;6.50;99.90;;;;;;4974633;28;20220;-64
2022/03/31 03:30:43;;;;;;;11.60;7.77;;;6.40;99.90;;;;;;4974292;28;20174;-64
2022/03/31 03:33:09;;;;;;;8.60;5.23;;;6.40;99.90;;;;;;4974059;28;20283;-64
2022/03/31 03:35:34;;;;;;;8.17;6.53;;;6.40;99.90;;;;;;4974171;28;20216;-63
2022/03/31 03:38:00;;;;;;;8.10;5.97;;;6.40;99.90;;;;;;4974507;28;20172;-65
2022/03/31 03:40:26;;;;;;;6.00;5.40;;;6.40;99.90;;;;;;4974123;28;20266;-63
2022/03/31 03:42:53;;;;;;;11.53;7.00;;;6.40;99.90;;;;;;4974353;28;20647;-64
2022/03/31 03:45:19;;;;;;;7.38;5.95;;;6.40;99.90;;;;;;4973946;28;20222;-64
2022/03/31 03:47:45;;;;;;;7.03;6.33;;;6.40;99.90;;;;;;4974184;28;20214;-64
2022/03/31 03:50:11;;;;;;;12.77;6.72;;;6.40;99.90;;;;;;4974148;28;20172;-64
2022/03/31 03:52:37;;;;;;;13.33;6.53;;;6.40;99.90;;;;;;4974235;28;20586;-64
2022/03/31 03:55:04;;;;;;;8.23;6.18;;;6.40;99.90;;;;;;4973966;28;20466;-64
2022/03/31 03:57:30;;;;;;;7.95;5.10;;;6.30;99.90;;;;;;4974216;28;20168;-63
2022/03/31 03:59:56;;;;;;;7.57;5.53;;;6.30;99.90;;;;;;4973751;28;20214;-63
2022/03/31 04:02:21;;;;;;;14.63;7.97;;;6.30;99.90;;;;;;4974340;28;20251;-63
2022/03/31 04:04:47;;;;;;;10.40;7.93;;;6.30;99.90;;;;;;4973773;28;20188;-62
2022/03/31 04:07:13;;;;;;;8.13;6.07;;;6.30;99.90;;;;;;4974096;28;20207;-63
2022/03/31 04:09:38;;;;;;;8.27;7.03;;;6.40;99.90;;;;;;4973854;28;20168;-63
2022/03/31 04:12:04;;;;;;;11.27;7.50;;;6.40;99.90;;;;;;4973775;28;20248;-63
2022/03/31 04:14:30;;;;;;;9.13;6.90;;;6.40;99.90;;;;;;4973621;28;20176;-64
2022/03/31 04:16:57;;;;;;;9.45;5.63;;;6.40;99.90;;;;;;4973793;28;20659;-63
2022/03/31 04:19:23;;;;;;;8.17;6.97;;;6.40;99.90;;;;;;4972965;28;20209;-64
2022/03/31 04:21:49;;;;;;;8.57;7.32;;;6.30;99.90;;;;;;4973987;28;20250;-64
2022/03/31 04:24:14;;;;;;;9.00;7.10;;;6.30;99.90;;;;;;4973467;28;20604;-65
2022/03/31 04:26:40;;;;;;;7.60;6.27;;;6.40;99.90;;;;;;4973234;28;20432;-63
2022/03/31 04:29:08;;;;;;;13.40;8.00;;;6.40;99.90;;;;;;4976222;28;20185;-62
2022/03/31 04:31:36;;;;;;;8.13;6.57;;;6.40;99.90;;;;;;4977498;28;20440;-64
2022/03/31 04:34:02;;;;;;;5.10;4.60;;;6.40;99.90;;;;;;4976683;28;20176;-63
2022/03/31 04:36:28;;;;;;;10.77;6.87;;;6.40;99.90;;;;;;4977314;28;20207;-63
2022/03/31 04:38:53;;;;;;;8.10;6.10;;;6.40;99.90;;;;;;4977477;28;20180;-64
2022/03/31 04:41:19;;;;;;;10.17;7.17;;;6.30;99.90;;;;;;4977293;28;20200;-63
2022/03/31 04:43:45;;;;;;;8.93;7.20;;;6.30;99.90;;;;;;4976834;28;20659;-63
2022/03/31 04:46:10;;;;;;;8.67;6.27;;;6.30;99.90;;;;;;4976838;28;20247;-63
2022/03/31 04:48:36;;;;;;;9.10;5.50;;;6.30;99.90;;;;;;4977312;28;20705;-64
2022/03/31 04:51:02;;;;;;;6.97;5.90;;;6.30;99.90;;;;;;4976721;28;20201;-64
2022/03/31 04:53:27;;;;;;;8.47;7.47;;;6.40;99.90;;;;;;4976271;28;20231;-63
2022/03/31 04:55:53;;;;;;;6.00;4.90;;;6.30;99.90;;;;;;4976718;28;20195;-63
2022/03/31 04:58:19;;;;;;;8.93;6.07;;;6.30;99.90;;;;;;4976833;28;20180;-64
2022/03/31 05:00:44;;;;;;;9.40;7.20;;;6.20;99.90;;;;;;4976854;28;20204;-64
2022/03/31 05:03:10;;;;;;;8.57;5.70;;;6.20;99.90;;;;;;4976419;28;20178;-64
2022/03/31 05:05:36;;;;;;;9.67;6.40;;;6.20;99.90;;;;;;4976936;28;20195;-64
2022/03/31 05:08:02;;;;;;;8.53;7.70;;;6.20;99.90;;;;;;4976938;28;20199;-64
2022/03/31 05:10:28;;;;;;;8.23;6.25;;;6.20;99.90;;;;;;4976854;28;20179;-64
2022/03/31 05:12:53;;;;;;;11.00;7.53;;;6.20;99.90;;;;;;4976402;28;20272;-64
2022/03/31 05:15:19;;;;;;;8.30;6.33;;;6.20;99.90;;;;;;4974795;28;20660;-65
2022/03/31 05:17:45;;;;;;;8.77;5.20;;;6.20;99.90;;;;;;4974712;28;20180;-65
2022/03/31 05:20:12;;;;;;;8.87;5.90;;;6.20;99.90;;;;;;4975576;28;20219;-65
2022/03/31 05:22:39;;;;;;;10.95;7.05;;;6.20;99.90;;;;;;4975605;28;20603;-65
2022/03/31 05:25:07;;;;;;;6.78;5.90;;;6.20;99.90;;;;;;4974096;28;20232;-64
2022/03/31 05:27:33;;;;;;;8.90;6.15;;;6.20;99.90;;;;;;4973225;28;20205;-64
2022/03/31 05:29:59;;;;;;;12.00;7.90;;;6.20;99.90;;;;;;4973972;28;20532;-66
2022/03/31 05:32:25;;;;;;;9.47;7.90;;;6.20;99.90;;;;;;4973097;28;20179;-65
2022/03/31 05:34:51;;;;;;;13.67;8.80;;;6.20;99.90;;;;;;4973861;28;20271;-64
2022/03/31 05:37:17;;;;;;;10.05;6.68;;;6.20;99.90;;;;;;4974052;28;20196;-64
2022/03/31 05:39:44;;;;;;;10.07;7.37;;;6.20;99.90;;;;;;4975147;28;20203;-64
2022/03/31 05:42:09;;;;;;;10.82;8.00;;;6.20;99.90;;;;;;4976531;28;20439;-64
2022/03/31 05:44:35;;;;;;;9.90;6.17;;;6.20;99.90;;;;;;4975721;28;20213;-63
2022/03/31 05:47:01;;;;;;;10.43;6.60;;;6.20;99.90;;;;;;4975738;28;20173;-63
2022/03/31 05:49:27;;;;;;;11.27;6.75;;;6.20;99.90;;;;;;4974745;28;20205;-64
2022/03/31 05:51:53;;;;;;;9.17;6.70;;;6.30;99.90;;;;;;4976024;28;20651;-64
2022/03/31 05:54:18;;;;;;;12.40;7.73;;;6.30;99.90;;;;;;4975266;28;20410;-64
2022/03/31 05:56:44;;;;;;;10.07;7.27;;;6.30;99.90;;;;;;4975815;28;20645;-64
2022/03/31 05:59:10;;;;;;;11.40;6.93;;;6.30;99.90;;;;;;4974589;28;20641;-63
2022/03/31 06:01:36;;;;;;;11.77;7.90;;;6.30;99.90;;;;;;4975557;28;20196;-63
2022/03/31 06:04:02;;;;;;;7.80;5.70;;;6.30;99.90;;;;;;4975180;28;20179;-65
2022/03/31 06:06:27;;;;;;;9.23;6.57;;;6.30;99.90;;;;;;4973282;28;20193;-66
2022/03/31 06:08:53;;;;;;;12.25;8.65;;;6.40;99.90;;;;;;4974060;28;20485;-65
2022/03/31 06:11:18;;;;;;;8.83;7.77;;;6.40;99.90;;;;;;4974159;28;20204;-65
2022/03/31 06:13:44;;;;;;;11.57;7.83;;;6.40;99.90;;;;;;4973889;28;20184;-63
2022/03/31 06:16:13;;;;;;;10.30;8.00;;;6.50;99.90;;;;;;4975417;28;20207;-64
2022/03/31 06:18:39;;;;;;;13.23;6.97;;;6.60;99.90;;;;;;4975221;28;20267;-64
2022/03/31 06:21:04;;;;;;;6.47;5.40;;;6.60;99.90;;;;;;4975290;28;20738;-63
2022/03/31 06:23:30;;;;;;;9.33;7.17;;;6.60;99.90;;;;;;4974976;28;20164;-64
2022/03/31 06:25:56;;;;;;;10.10;7.17;;;6.60;99.90;;;;;;4975212;28;20509;-63
2022/03/31 06:28:22;;;;;;;9.10;6.90;;;6.70;99.90;;;;;;4973729;28;20188;-62
2022/03/31 06:30:48;;;;;;;8.03;7.00;;;6.60;99.90;;;;;;4974026;28;20868;-63
2022/03/31 06:33:16;;;;;;;12.65;6.18;;;6.70;99.90;;;;;;4974679;28;20442;-63
2022/03/31 06:35:41;;;;;;;7.82;5.90;;;6.70;99.90;;;;;;4974771;28;20699;-63
2022/03/31 06:38:08;;;;;;;6.90;4.53;;;6.80;99.90;;;;;;4974504;28;20223;-63
2022/03/31 06:40:37;;;;;;;9.48;6.55;;;6.80;99.90;;;;;;4974846;28;20247;-64
2022/03/31 06:43:04;;;;;;;9.35;7.03;;;7.90;99.90;;;;;;4974823;28;20172;-64
2022/03/31 06:45:30;;;;;;;9.25;7.07;;;6.90;99.90;;;;;;4973173;28;20190;-64
2022/03/31 06:47:57;;;;;;;8.10;5.53;;;6.90;99.90;;;;;;4974871;28;20248;-64
2022/03/31 06:50:23;;;;;;;11.75;7.40;;;7.00;99.90;;;;;;4974845;28;20172;-64
2022/03/31 06:52:48;;;;;;;8.73;7.73;;;7.10;99.90;;;;;;4974541;28;20266;-64
2022/03/31 06:55:14;;;;;;;9.23;6.83;;;7.10;99.90;;;;;;4974515;28;20588;-64
2022/03/31 06:57:40;;;;;;;12.97;7.57;;;7.10;99.90;;;;;;4974099;28;20269;-64
2022/03/31 07:00:06;;;;;;;12.00;7.80;;;7.10;99.90;;;;;;4974670;28;20652;-64
2022/03/31 07:02:32;;;;;;;6.38;5.78;;;7.20;99.90;;;;;;4971393;28;20426;-64
2022/03/31 07:04:58;;;;;;;10.03;7.57;;;7.20;99.90;;;;;;4974411;28;20196;-63
2022/03/31 07:07:24;;;;;;;7.77;6.80;;;7.30;99.90;;;;;;4974264;28;20184;-62
2022/03/31 07:09:51;;;;;;;12.38;7.80;;;7.40;99.90;;;;;;4974629;28;20456;-63
2022/03/31 07:12:17;;;;;;;11.40;8.10;;;7.40;99.90;;;;;;4974792;28;20167;-63
2022/03/31 07:14:44;;;;;;;10.97;7.67;;;7.40;99.90;;;;;;4974345;28;20305;-69
2022/03/31 07:17:10;;;;;;;9.15;7.50;;;7.50;99.90;;;;;;4974289;28;20518;-67
2022/03/31 07:19:35;;;;;;;8.30;6.05;;;7.50;99.90;;;;;;4974656;28;20180;-63
2022/03/31 07:22:01;;;;;;;11.80;7.40;;;7.60;99.90;;;;;;4974638;28;20641;-67
2022/03/31 07:24:27;;;;;;;10.15;7.63;;;7.70;99.90;;;;;;4974076;28;20168;-62
2022/03/31 07:26:54;;;;;;;7.70;7.00;;;7.70;99.90;;;;;;4972873;28;20175;-62
2022/03/31 07:29:19;;;;;;;12.25;8.68;;;7.80;99.90;;;;;;4974553;28;20181;-63
2022/03/31 07:31:45;;;;;;;9.87;7.53;;;7.80;99.90;;;;;;4974592;28;20172;-64
2022/03/31 07:34:10;;;;;;;10.70;6.80;;;7.80;99.90;;;;;;4973899;28;20194;-61
2022/03/31 07:36:36;;;;;;;12.93;7.63;;;7.90;99.90;;;;;;4974217;28;20223;-62
2022/03/31 07:39:02;;;;;;;6.87;5.40;;;7.90;99.90;;;;;;4974465;28;20164;-62
2022/03/31 07:41:28;;;;;;;8.43;7.17;;;7.90;99.90;;;;;;4974304;28;20285;-62
2022/03/31 07:43:53;;;;;;;9.23;7.30;;;8.00;99.90;;;;;;4973600;28;20900;-65
2022/03/31 07:46:19;;;;;;;8.90;7.37;;;8.00;99.90;;;;;;4974295;28;20243;-62
2022/03/31 07:48:44;;;;;;;12.03;6.97;;;8.00;99.90;;;;;;4974535;28;20566;-63
2022/03/31 07:51:10;;;;;;;11.67;8.27;;;8.00;99.90;;;;;;4974836;28;20274;-63
2022/03/31 07:53:36;;;;;;;9.50;6.63;;;8.10;99.90;;;;;;4973976;28;20178;-62
2022/03/31 07:56:05;;;;;;;9.57;7.47;;;8.10;99.90;;;;;;4972182;28;20294;-63
2022/03/31 07:58:31;;;;;;;7.78;6.18;;;8.10;99.90;;;;;;4974134;28;20538;-62
2022/03/31 08:00:57;;;;;;;6.13;5.53;;;8.10;99.90;;;;;;4974313;28;20198;-63
2022/03/31 08:03:23;;;;;;;8.18;6.78;;;8.10;99.90;;;;;;4974801;28;20165;-63
2022/03/31 08:05:49;;;;;;;7.50;6.60;;;8.10;99.90;;;;;;4977740;28;20219;-63
2022/03/31 08:08:15;;;;;;;11.52;6.55;;;8.10;99.90;;;;;;4977793;28;20439;-62
2022/03/31 08:10:41;;;;;;;8.43;7.03;;;8.10;99.90;;;;;;4978025;28;20223;-63
2022/03/31 08:13:08;;;;;;;9.00;6.77;;;8.20;99.90;;;;;;4977537;28;20418;-64
2022/03/31 08:15:34;;;;;;;10.55;6.40;;;8.20;99.90;;;;;;4977465;28;20450;-63
2022/03/31 08:18:00;;;;;;;8.70;7.17;;;8.30;99.90;;;;;;4977975;28;20255;-63
2022/03/31 08:20:26;;;;;;;6.90;5.38;;;8.30;99.90;;;;;;4977656;28;20455;-63
2022/03/31 08:22:52;;;;;;;7.10;5.88;;;8.30;99.90;;;;;;4977784;28;20303;-62
2022/03/31 08:25:18;;;;;;;12.70;8.60;;;8.30;99.90;;;;;;4977279;28;20285;-62
2022/03/31 08:27:45;;;;;;;9.10;7.37;;;8.30;99.90;;;;;;4977642;28;20461;-62
2022/03/31 08:30:16;;;;;;;7.30;6.60;;;8.30;99.90;;;;;;4977491;28;20411;-65
2022/03/31 08:32:43;;;;;;;7.93;6.22;;;8.40;99.90;;;;;;4977609;28;20186;-63
2022/03/31 08:35:10;;;;;;;10.93;5.90;;;8.40;99.90;;;;;;4976909;28;20251;-62
2022/03/31 08:37:37;;;;;;;10.57;6.70;;;8.50;99.90;;;;;;4977741;28;20200;-63
2022/03/31 08:40:04;;;;;;;12.07;9.10;;;8.60;99.90;;;;;;4977342;28;20196;-63
2022/03/31 08:42:30;;;;;;;9.95;7.15;;;8.80;99.90;;;;;;4977244;28;20259;-62
2022/03/31 08:44:57;;;;;;;11.77;7.63;;;8.90;99.90;;;;;;4976799;28;20184;-63
2022/03/31 08:47:26;;;;;;;11.23;8.13;;;8.90;99.90;;;;;;4977335;28;20207;-63
2022/03/31 08:49:53;;;;;;;6.85;5.97;;;8.90;99.90;;;;;;4977449;28;20566;-63
2022/03/31 08:52:19;;;;;;;12.30;6.20;;;8.90;99.90;;;;;;4976932;28;20651;-63
2022/03/31 08:54:45;;;;;;;10.20;7.70;;;8.90;99.90;;;;;;4976720;28;20223;-63
2022/03/31 08:57:10;;;;;;;10.47;8.23;;;8.90;99.90;;;;;;4975377;28;20279;-63
2022/03/31 08:59:36;;;;;;;11.63;7.00;;;9.00;99.90;;;;;;4977036;28;20422;-63
2022/03/31 09:02:02;;;;;;;9.23;7.20;;;9.10;99.90;;;;;;4976886;28;20733;-63
2022/03/31 09:04:28;;;;;;;10.57;6.80;;;9.00;99.90;;;;;;4976758;28;20196;-63
2022/03/31 09:07:06;;;;;;;10.13;6.68;;;9.10;99.90;;;;;;4976607;28;20179;-63
2022/03/31 09:09:53;;;;;;;8.90;6.90;;;9.10;99.90;;;;;;4977017;28;20164;-63
2022/03/31 09:12:19;;;;;;;7.60;5.75;;;9.20;99.90;;;;;;4976775;28;20616;-63
2022/03/31 09:14:45;;;;;;;9.65;6.57;;;9.20;99.90;;;;;;4975272;28;20191;-63
2022/03/31 09:17:12;;;;;;;9.07;8.17;;;9.10;99.90;;;;;;4976558;28;20184;-64
2022/03/31 09:19:38;;;;;;;8.88;7.20;;;9.20;99.90;;;;;;4976781;28;20407;-63
2022/03/31 09:22:04;;;;;;;11.18;7.30;;;9.10;99.90;;;;;;4976822;28;20216;-63
2022/03/31 09:24:31;;;;;;;6.15;5.55;;;9.00;99.90;;;;;;4976211;28;20247;-63
2022/03/31 09:26:59;;;;;;;10.02;7.93;;;9.10;99.90;;;;;;4976058;28;20258;-63
2022/03/31 09:29:30;;;;;;;7.90;5.55;;;9.10;99.90;;;;;;4976566;28;20311;-62
2022/03/31 09:32:09;;;;;;;8.55;7.68;;;9.10;99.90;;;;;;4976810;28;20183;-63
2022/03/31 09:34:40;;;;;;;10.82;7.60;;;9.20;99.90;;;;;;4975977;28;20211;-63
2022/03/31 09:37:06;;;;;;;14.57;8.60;;;9.20;99.90;;;;;;4976217;28;20583;-63
2022/03/31 09:39:32;;;;;;;12.20;8.13;;;9.30;99.90;;;;;;4976508;28;20274;-63
2022/03/31 09:41:57;;;;;;;12.03;7.80;;;9.50;99.90;;;;;;4976508;28;20523;-63
2022/03/31 09:44:23;;;;;;;7.37;6.67;;;9.50;99.90;;;;;;4975950;28;20176;-63
2022/03/31 09:46:50;;;;;;;11.00;6.80;;;9.70;99.90;;;;;;4976057;28;20184;-63
2022/03/31 09:49:27;;;;;;;10.50;8.07;;;9.70;99.90;;;;;;4976252;28;20735;-63
2022/03/31 09:51:58;;;;;;;8.75;6.18;;;9.90;99.90;;;;;;4976323;28;20178;-63
2022/03/31 09:54:27;;;;;;;9.18;7.25;;;10.10;99.90;;;;;;4975746;28;20176;-63
2022/03/31 09:56:53;;;;;;;10.50;7.80;;;10.40;99.90;;;;;;4975757;28;20223;-63
2022/03/31 09:59:19;;;;;;;16.98;9.00;;;10.50;99.90;;;;;;4976074;28;20172;-63
2022/03/31 10:01:46;;;;;;;8.80;7.20;;;10.70;99.90;;;;;;4975939;28;20208;-63
2022/03/31 10:04:14;;;;;;;10.80;8.35;;;10.70;99.90;;;;;;4975542;28;20220;-63
2022/03/31 10:06:41;;;;;;;10.45;8.77;;;10.60;99.90;;;;;;4975538;28;20164;-63
2022/03/31 10:09:10;;;;;;;13.10;9.00;;;10.80;99.90;;;;;;4974435;28;20196;-63
2022/03/31 10:11:38;;;;;;;10.98;8.02;;;10.90;99.90;;;;;;4975834;28;20172;-63
2022/03/31 10:14:16;;;;;;;12.80;8.90;;;11.00;99.90;;;;;;4975289;28;20169;-63
2022/03/31 10:17:05;;;;;;;15.50;8.73;;;11.10;99.90;;;;;;4973891;28;20544;-63
2022/03/31 10:19:40;;;;;;;11.55;9.05;;;11.00;99.90;;;;;;4975256;28;20240;-63
2022/03/31 10:25:07;;;;;;;10.05;7.57;;;11.30;99.90;;;;;;4974747;28;20562;-62
2022/03/31 10:27:40;;;;;;;13.40;9.25;;;11.40;99.90;;;;;;4974745;28;20173;-62
2022/03/31 10:30:23;;;;;;;11.73;9.47;;;11.50;99.90;;;;;;4975333;28;20195;-64
2022/03/31 10:32:56;;;;;;;9.73;7.70;;;11.60;99.90;;;;;;4975238;28;20498;-62
2022/03/31 10:35:37;;;;;;;12.67;7.43;;;11.70;99.90;;;;;;4974534;28;20540;-64
2022/03/31 10:38:19;;;;;;;11.90;7.67;;;11.80;99.90;;;;;;4974969;28;20768;-63
2022/03/31 10:40:49;;;;;;;9.40;6.10;;;12.00;99.90;;;;;;4975122;28;20472;-64
2022/03/31 10:43:29;;;;;;;12.60;7.83;;;12.10;99.90;;;;;;4974909;28;20455;-63
2022/03/31 10:45:57;;;;;;;8.93;7.03;;;12.20;99.90;;;;;;4974674;28;20441;-64
2022/03/31 10:48:28;;;;;;;12.60;8.10;;;12.20;99.90;;;;;;4974815;28;20504;-63
2022/03/31 10:51:11;;;;;;;16.17;7.73;;;12.10;99.90;;;;;;4974970;28;20781;-63
2022/03/31 10:53:44;;;;;;;9.73;7.70;;;12.30;99.90;;;;;;4974674;28;20496;-63
2022/03/31 10:56:27;;;;;;;14.23;6.47;;;12.30;99.90;;;;;;4974404;28;20446;-63
2022/03/31 10:58:55;;;;;;;13.70;8.53;;;12.30;99.90;;;;;;4974838;28;20501;-65
2022/03/31 11:01:22;;;;;;;11.40;9.03;;;12.30;99.90;;;;;;4974557;28;20466;-62
2022/03/31 11:03:52;;;;;;;10.80;7.30;;;12.20;99.90;;;;;;4974285;28;20410;-62
2022/03/31 11:06:18;;;;;;;10.93;7.63;;;12.20;99.90;;;;;;4974545;28;20424;-64
2022/03/31 11:08:48;;;;;;;9.00;7.53;;;12.10;99.90;;;;;;4974578;28;20438;-63
2022/03/31 11:11:27;;;;;;;10.50;8.10;;;12.10;99.90;;;;;;4974513;28;20368;-63
2022/03/31 11:13:55;;;;;;;9.17;7.20;;;12.10;99.90;;;;;;4974344;28;20764;-63
2022/03/31 11:16:22;;;;;;;12.37;7.73;;;12.00;99.90;;;;;;4974075;28;20456;-63
2022/03/31 11:18:57;;;;;;;12.27;7.57;;;11.90;99.90;;;;;;4974547;28;20910;-63
2022/03/31 11:21:24;;;;;;;12.17;7.23;;;11.80;99.90;;;;;;4974491;28;20474;-63
2022/03/31 11:23:50;;;;;;;10.33;7.30;;;11.90;99.90;;;;;;4972797;28;20502;-64
2022/03/31 11:26:29;;;;;;;11.93;7.80;;;11.90;99.90;;;;;;4974060;28;20465;-62
2022/03/31 11:28:56;;;;;;;10.33;8.20;;;12.10;99.90;;;;;;4974624;28;20401;-63
2022/03/31 11:31:22;;;;;;;10.40;7.77;;;12.10;99.90;;;;;;4973140;28;20418;-65
2022/03/31 11:33:49;;;;;;;10.70;8.47;;;12.20;99.90;;;;;;4974039;28;20462;-64
2022/03/31 11:36:17;;;;;;;16.87;8.60;;;12.30;99.90;;;;;;4973842;28;20471;-63
2022/03/31 11:38:57;;;;;;;12.90;8.50;;;12.40;99.90;;;;;;4973711;28;20437;-63
2022/03/31 11:41:23;;;;;;;12.67;8.17;;;12.40;99.90;;;;;;4974145;28;20464;-63
2022/03/31 11:43:49;;;;;;;9.60;8.03;;;12.30;99.90;;;;;;4973814;28;20410;-65
2022/03/31 11:46:15;;;;;;;9.70;7.57;;;12.30;99.90;;;;;;4974046;28;20531;-63
2022/03/31 11:48:41;;;;;;;9.20;6.83;;;12.30;99.90;;;;;;4974197;28;20486;-63
2022/03/31 11:51:08;;;;;;;13.20;7.07;;;12.40;99.90;;;;;;4974647;28;20222;-64
2022/03/31 11:53:41;;;;;;;14.23;8.47;;;12.40;99.90;;;;;;4973677;28;20816;-63
2022/03/31 11:56:11;;;;;;;10.80;7.80;;;12.50;99.90;;;;;;4973553;28;20790;-62
2022/03/31 11:58:47;;;;;;;10.87;7.77;;;12.40;99.90;;;;;;4974456;28;20406;-63
2022/03/31 12:01:17;;;;;;;11.23;7.90;;;12.40;99.90;;;;;;4973970;28;20816;-63
2022/03/31 12:03:42;;;;;;;8.93;6.43;;;12.40;99.90;;;;;;4974076;28;20734;-62
2022/03/31 12:06:10;;;;;;;9.77;8.20;;;12.30;99.90;;;;;;4973406;28;20445;-63
2022/03/31 12:08:38;;;;;;;9.20;6.47;;;12.30;99.90;;;;;;4972945;28;20320;-63
2022/03/31 12:11:05;;;;;;;8.87;6.97;;;12.30;99.90;;;;;;4974286;28;20493;-62
2022/03/31 12:13:31;;;;;;;10.63;7.77;;;12.50;99.90;;;;;;4973889;28;20818;-62
2022/03/31 12:16:08;;;;;;;11.10;7.50;;;12.50;99.90;;;;;;4973751;28;20523;-63
2022/03/31 12:18:35;;;;;;;9.43;6.77;;;12.50;99.90;;;;;;4974152;28;20316;-62
2022/03/31 12:21:04;;;;;;;12.20;7.30;;;12.40;99.90;;;;;;4973816;28;20453;-63
2022/03/31 12:23:30;;;;;;;11.33;7.67;;;12.30;99.90;;;;;;4973810;28;20403;-65
2022/03/31 12:25:56;;;;;;;16.83;7.07;;;12.50;99.90;;;;;;4973440;28;20518;-63
2022/03/31 12:28:23;;;;;;;9.83;7.70;;;12.40;99.90;;;;;;4974228;28;20810;-64
2022/03/31 12:30:56;;;;;;;8.43;6.70;;;12.40;99.90;;;;;;4973875;28;20177;-63
2022/03/31 12:33:31;;;;;;;9.00;8.10;;;12.40;99.90;;;;;;4973642;28;20414;-64
2022/03/31 12:36:00;;;;;;;10.87;7.20;;;12.50;99.90;;;;;;4973364;28;20798;-62
2022/03/31 12:38:38;;;;;;;9.63;8.43;;;12.50;99.90;;;;;;4973879;28;20408;-63
2022/03/31 12:41:25;;;;;;;9.50;7.10;;;12.50;99.90;;;;;;4973820;28;20457;-63
2022/03/31 12:44:06;;;;;;;9.30;7.90;;;12.60;99.90;;;;;;4972773;28;20483;-63
2022/03/31 12:46:40;;;;;;;9.90;7.80;;;12.60;99.90;;;;;;4973524;28;20501;-62
2022/03/31 12:49:07;;;;;;;10.50;7.50;;;12.70;99.90;;;;;;4974595;28;20411;-63
2022/03/31 12:51:52;;;;;;;12.67;8.87;;;12.70;99.90;;;;;;4976973;28;20417;-62
2022/03/31 12:54:23;;;;;;;9.20;6.70;;;12.70;99.90;;;;;;4975638;28;20426;-62
2022/03/31 12:56:50;;;;;;;11.00;7.93;;;12.60;99.90;;;;;;4976774;28;20817;-62